FDX1215 KMEM-KBNA
Flight info
| Callsign | FDX1215 |
|---|---|
| Flight time | 0h 42m |
| Altitude | 19000 |
| Route | GOETZ7 DIYAB DCT CHSNE CHSNE3 |
| Aircraft | B777/H-V/N |
Departure
| Time | 2026-05-06 01:44 |
|---|---|
| Airport | Memphis International Airport (KMEM) |
Arrival
| Time | 2026-05-06 02:26 |
|---|---|
| Airport | Nashville International Airport (KBNA) |
| Time | Latitude | Longitude | Altitude | Speed | Heading |
|---|---|---|---|---|---|
| 2026-05-06 01:17 | 35.06002 | -89.96186 | 295 ft | 0 kts | 185° |
| 2026-05-06 01:33 | 35.05997 | -89.96186 | 299 ft | 4 kts | 182° |
| 2026-05-06 01:33 | 35.05994 | -89.96187 | 299 ft | 4 kts | 4° |
| 2026-05-06 01:33 | 35.05970 | -89.96187 | 298 ft | 2 kts | 2° |
| 2026-05-06 01:33 | 35.05965 | -89.96187 | 299 ft | 1 kts | 2° |
| 2026-05-06 01:38 | 35.05968 | -89.96187 | 301 ft | 5 kts | 2° |
| 2026-05-06 01:38 | 35.06025 | -89.96210 | 298 ft | 10 kts | 304° |
| 2026-05-06 01:38 | 35.06041 | -89.96301 | 294 ft | 12 kts | 272° |
| 2026-05-06 01:39 | 35.06043 | -89.96406 | 291 ft | 13 kts | 271° |
| 2026-05-06 01:39 | 35.05999 | -89.96492 | 297 ft | 13 kts | 212° |
| 2026-05-06 01:39 | 35.05935 | -89.96568 | 293 ft | 13 kts | 232° |
| 2026-05-06 01:39 | 35.05920 | -89.96683 | 287 ft | 15 kts | 271° |
| 2026-05-06 01:40 | 35.05922 | -89.96811 | 286 ft | 15 kts | 272° |
| 2026-05-06 01:40 | 35.05926 | -89.96938 | 286 ft | 15 kts | 272° |
| 2026-05-06 01:40 | 35.05931 | -89.97066 | 283 ft | 16 kts | 272° |
| 2026-05-06 01:40 | 35.05935 | -89.97205 | 281 ft | 17 kts | 272° |
| 2026-05-06 01:41 | 35.05937 | -89.97339 | 283 ft | 15 kts | 271° |
| 2026-05-06 01:41 | 35.05937 | -89.97460 | 283 ft | 13 kts | 251° |
| 2026-05-06 01:41 | 35.05866 | -89.97490 | 283 ft | 11 kts | 171° |
| 2026-05-06 01:41 | 35.05788 | -89.97484 | 282 ft | 13 kts | 181° |
| 2026-05-06 01:42 | 35.05650 | -89.97487 | 282 ft | 21 kts | 180° |
| 2026-05-06 01:42 | 35.05526 | -89.97487 | 286 ft | 12 kts | 180° |
| 2026-05-06 01:42 | 35.05500 | -89.97494 | 286 ft | 0 kts | 206° |
| 2026-05-06 01:43 | 35.05493 | -89.97499 | 286 ft | 10 kts | 210° |
| 2026-05-06 01:43 | 35.05445 | -89.97567 | 286 ft | 2 kts | 236° |
| 2026-05-06 01:43 | 35.05360 | -89.97612 | 288 ft | 33 kts | 182° |
| 2026-05-06 01:43 | 35.04758 | -89.97601 | 299 ft | 140 kts | 179° |
| 2026-05-06 01:44 | 35.03547 | -89.97568 | 879 ft | 190 kts | 181° |
| 2026-05-06 01:44 | 35.02154 | -89.97542 | 1966 ft | 201 kts | 183° |
| 2026-05-06 01:44 | 35.00744 | -89.97522 | 3037 ft | 209 kts | 184° |
| 2026-05-06 01:44 | 34.99272 | -89.97453 | 3963 ft | 214 kts | 184° |
| 2026-05-06 01:45 | 34.97719 | -89.97375 | 4617 ft | 231 kts | 182° |
| 2026-05-06 01:45 | 34.96074 | -89.96835 | 5000 ft | 263 kts | 160° |
| 2026-05-06 01:45 | 34.94478 | -89.95629 | 4989 ft | 277 kts | 146° |
| 2026-05-06 01:45 | 34.93272 | -89.93722 | 4992 ft | 295 kts | 116° |
| 2026-05-06 01:46 | 34.92875 | -89.91245 | 4992 ft | 299 kts | 96° |
| 2026-05-06 01:46 | 34.92788 | -89.88711 | 4997 ft | 301 kts | 97° |
| 2026-05-06 01:46 | 34.92666 | -89.86138 | 5472 ft | 305 kts | 97° |
| 2026-05-06 01:46 | 34.92793 | -89.83535 | 6247 ft | 316 kts | 73° |
| 2026-05-06 01:47 | 34.93820 | -89.81184 | 7097 ft | 313 kts | 53° |
| 2026-05-06 01:47 | 34.95033 | -89.78955 | 7911 ft | 320 kts | 56° |
| 2026-05-06 01:47 | 34.96164 | -89.76630 | 8857 ft | 325 kts | 57° |
| 2026-05-06 01:47 | 34.97296 | -89.74234 | 9826 ft | 328 kts | 57° |
| 2026-05-06 01:48 | 34.98443 | -89.71791 | 10577 ft | 338 kts | 56° |
| 2026-05-06 01:48 | 34.99658 | -89.69211 | 10877 ft | 366 kts | 56° |
| 2026-05-06 01:48 | 35.00978 | -89.66415 | 11101 ft | 395 kts | 56° |
| 2026-05-06 01:48 | 35.02394 | -89.63407 | 11418 ft | 419 kts | 56° |
| 2026-05-06 01:49 | 35.03859 | -89.60279 | 12097 ft | 431 kts | 56° |
| 2026-05-06 01:49 | 35.05357 | -89.57072 | 12890 ft | 439 kts | 56° |
| 2026-05-06 01:49 | 35.06880 | -89.53811 | 13734 ft | 446 kts | 55° |
| 2026-05-06 01:49 | 35.08425 | -89.50500 | 14478 ft | 451 kts | 55° |
| 2026-05-06 01:50 | 35.09988 | -89.47150 | 15276 ft | 456 kts | 55° |
| 2026-05-06 01:50 | 35.11569 | -89.43764 | 15978 ft | 463 kts | 55° |
| 2026-05-06 01:50 | 35.13173 | -89.40325 | 15994 ft | 467 kts | 55° |
| 2026-05-06 01:50 | 35.14756 | -89.36923 | 16002 ft | 464 kts | 55° |
| 2026-05-06 01:51 | 35.16195 | -89.33825 | 16000 ft | 462 kts | 55° |
| 2026-05-06 01:51 | 35.17780 | -89.30414 | 15998 ft | 461 kts | 55° |
| 2026-05-06 01:51 | 35.19374 | -89.26990 | 16307 ft | 465 kts | 55° |
| 2026-05-06 01:51 | 35.20976 | -89.23542 | 17210 ft | 467 kts | 56° |
| 2026-05-06 01:52 | 35.22406 | -89.19986 | 18068 ft | 470 kts | 65° |
| 2026-05-06 01:52 | 35.23389 | -89.16154 | 18787 ft | 473 kts | 71° |
| 2026-05-06 01:52 | 35.24271 | -89.12260 | 19028 ft | 475 kts | 71° |
| 2026-05-06 01:52 | 35.25174 | -89.08392 | 18996 ft | 470 kts | 67° |
| 2026-05-06 01:53 | 35.26360 | -89.04681 | 19019 ft | 466 kts | 62° |
| 2026-05-06 01:53 | 35.27722 | -89.01092 | 19023 ft | 464 kts | 59° |
| 2026-05-06 01:53 | 35.29115 | -88.97590 | 19029 ft | 464 kts | 59° |
| 2026-05-06 01:53 | 35.30539 | -88.93981 | 19030 ft | 464 kts | 60° |
| 2026-05-06 01:54 | 35.31894 | -88.90458 | 19025 ft | 464 kts | 60° |
| 2026-05-06 01:54 | 35.33240 | -88.86864 | 19031 ft | 464 kts | 61° |
| 2026-05-06 01:54 | 35.34559 | -88.83270 | 19031 ft | 464 kts | 62° |
| 2026-05-06 01:54 | 35.35879 | -88.79630 | 19025 ft | 464 kts | 62° |
| 2026-05-06 01:55 | 35.37180 | -88.76019 | 19020 ft | 464 kts | 62° |
| 2026-05-06 01:55 | 35.38481 | -88.72402 | 19034 ft | 463 kts | 62° |
| 2026-05-06 01:55 | 35.39778 | -88.68790 | 19033 ft | 463 kts | 62° |
| 2026-05-06 01:55 | 35.41071 | -88.65191 | 19031 ft | 463 kts | 62° |
| 2026-05-06 01:56 | 35.42367 | -88.61580 | 19035 ft | 462 kts | 62° |
| 2026-05-06 01:56 | 35.43664 | -88.57967 | 19035 ft | 462 kts | 62° |
| 2026-05-06 01:56 | 35.44959 | -88.54355 | 19032 ft | 462 kts | 62° |
| 2026-05-06 01:56 | 35.46254 | -88.50741 | 19025 ft | 462 kts | 62° |
| 2026-05-06 01:57 | 35.47546 | -88.47128 | 19028 ft | 462 kts | 62° |
| 2026-05-06 01:57 | 35.48839 | -88.43511 | 19034 ft | 462 kts | 62° |
| 2026-05-06 01:57 | 35.50128 | -88.39900 | 19032 ft | 462 kts | 62° |
| 2026-05-06 01:57 | 35.51417 | -88.36285 | 19035 ft | 462 kts | 62° |
| 2026-05-06 01:58 | 35.52687 | -88.32718 | 19036 ft | 462 kts | 62° |
| 2026-05-06 01:58 | 35.53974 | -88.29100 | 19038 ft | 462 kts | 62° |
| 2026-05-06 01:58 | 35.55263 | -88.25473 | 19037 ft | 462 kts | 62° |
| 2026-05-06 01:58 | 35.56546 | -88.21857 | 19042 ft | 462 kts | 62° |
| 2026-05-06 01:59 | 35.57829 | -88.18235 | 19046 ft | 462 kts | 62° |
| 2026-05-06 01:59 | 35.59110 | -88.14617 | 19039 ft | 462 kts | 62° |
| 2026-05-06 01:59 | 35.60391 | -88.10994 | 19040 ft | 462 kts | 62° |
| 2026-05-06 01:59 | 35.61672 | -88.07368 | 19044 ft | 462 kts | 63° |
| 2026-05-06 02:00 | 35.62949 | -88.03748 | 19040 ft | 462 kts | 63° |
| 2026-05-06 02:00 | 35.64226 | -88.00123 | 19037 ft | 462 kts | 63° |
| 2026-05-06 02:00 | 35.65500 | -87.96503 | 19041 ft | 462 kts | 63° |
| 2026-05-06 02:00 | 35.66776 | -87.92875 | 18958 ft | 462 kts | 63° |
| 2026-05-06 02:01 | 35.68049 | -87.89252 | 18915 ft | 461 kts | 63° |
| 2026-05-06 02:01 | 35.69329 | -87.85640 | 18861 ft | 457 kts | 63° |
| 2026-05-06 02:01 | 35.70580 | -87.82114 | 18845 ft | 442 kts | 62° |
| 2026-05-06 02:01 | 35.71792 | -87.78698 | 18799 ft | 430 kts | 62° |
| 2026-05-06 02:02 | 35.72980 | -87.75350 | 18523 ft | 424 kts | 62° |
| 2026-05-06 02:02 | 35.74157 | -87.72035 | 18098 ft | 422 kts | 63° |
| 2026-05-06 02:02 | 35.75329 | -87.68725 | 17572 ft | 422 kts | 63° |
| 2026-05-06 02:02 | 35.76498 | -87.65421 | 17127 ft | 419 kts | 63° |
| 2026-05-06 02:03 | 35.77656 | -87.62138 | 16695 ft | 416 kts | 63° |
| 2026-05-06 02:03 | 35.78802 | -87.58884 | 16279 ft | 413 kts | 63° |
| 2026-05-06 02:03 | 35.79939 | -87.55651 | 15865 ft | 410 kts | 63° |
| 2026-05-06 02:03 | 35.81070 | -87.52441 | 15438 ft | 407 kts | 63° |
| 2026-05-06 02:04 | 35.82223 | -87.49264 | 15023 ft | 405 kts | 62° |
| 2026-05-06 02:04 | 35.83390 | -87.46125 | 14601 ft | 402 kts | 62° |
| 2026-05-06 02:04 | 35.84555 | -87.42997 | 14201 ft | 400 kts | 62° |
| 2026-05-06 02:04 | 35.85691 | -87.39931 | 13798 ft | 398 kts | 63° |
| 2026-05-06 02:05 | 35.86835 | -87.36827 | 13376 ft | 395 kts | 63° |
| 2026-05-06 02:05 | 35.87964 | -87.33755 | 12963 ft | 392 kts | 63° |
| 2026-05-06 02:05 | 35.89085 | -87.30702 | 12544 ft | 389 kts | 63° |
| 2026-05-06 02:05 | 35.90195 | -87.27677 | 12139 ft | 386 kts | 64° |
| 2026-05-06 02:06 | 35.91297 | -87.24668 | 11725 ft | 384 kts | 64° |
| 2026-05-06 02:06 | 35.92393 | -87.21678 | 11369 ft | 379 kts | 65° |
| 2026-05-06 02:06 | 35.93455 | -87.18774 | 11272 ft | 359 kts | 65° |
| 2026-05-06 02:06 | 35.94445 | -87.16061 | 10975 ft | 336 kts | 65° |
| 2026-05-06 02:07 | 35.95388 | -87.13482 | 10457 ft | 324 kts | 65° |
| 2026-05-06 02:07 | 35.96339 | -87.11000 | 9861 ft | 316 kts | 63° |
| 2026-05-06 02:07 | 35.97326 | -87.08642 | 9588 ft | 306 kts | 62° |
| 2026-05-06 02:07 | 35.98320 | -87.06290 | 9262 ft | 312 kts | 62° |
| 2026-05-06 02:08 | 35.99327 | -87.03898 | 8937 ft | 317 kts | 62° |
| 2026-05-06 02:08 | 36.00343 | -87.01468 | 8616 ft | 319 kts | 63° |
| 2026-05-06 02:08 | 36.01353 | -86.99038 | 8263 ft | 316 kts | 63° |
| 2026-05-06 02:08 | 36.02344 | -86.96642 | 7939 ft | 312 kts | 62° |
| 2026-05-06 02:09 | 36.03328 | -86.94266 | 7610 ft | 309 kts | 63° |
| 2026-05-06 02:09 | 36.04297 | -86.91921 | 7278 ft | 304 kts | 63° |
| 2026-05-06 02:09 | 36.05249 | -86.89613 | 6985 ft | 300 kts | 63° |
| 2026-05-06 02:09 | 36.06192 | -86.87327 | 6670 ft | 297 kts | 63° |
| 2026-05-06 02:10 | 36.07127 | -86.85058 | 6363 ft | 297 kts | 63° |
| 2026-05-06 02:10 | 36.08058 | -86.82795 | 6259 ft | 291 kts | 63° |
| 2026-05-06 02:10 | 36.08959 | -86.80610 | 6254 ft | 278 kts | 64° |
| 2026-05-06 02:10 | 36.09850 | -86.78518 | 6173 ft | 278 kts | 56° |
| 2026-05-06 02:11 | 36.11253 | -86.76869 | 5682 ft | 280 kts | 18° |
| 2026-05-06 02:11 | 36.13085 | -86.76495 | 5355 ft | 258 kts | 339° |
| 2026-05-06 02:11 | 36.14612 | -86.77303 | 5204 ft | 232 kts | 320° |
| 2026-05-06 02:11 | 36.16094 | -86.78185 | 4898 ft | 240 kts | 334° |
| 2026-05-06 02:12 | 36.17789 | -86.78246 | 4663 ft | 253 kts | 9° |
| 2026-05-06 02:12 | 36.19461 | -86.77660 | 4531 ft | 255 kts | 7° |
| 2026-05-06 02:12 | 36.21145 | -86.76893 | 4270 ft | 264 kts | 31° |
| 2026-05-06 02:12 | 36.22387 | -86.75271 | 4104 ft | 258 kts | 67° |
| 2026-05-06 02:13 | 36.22932 | -86.73190 | 4095 ft | 255 kts | 83° |
| 2026-05-06 02:13 | 36.23271 | -86.71017 | 4122 ft | 259 kts | 85° |
| 2026-05-06 02:13 | 36.23557 | -86.68825 | 4045 ft | 254 kts | 93° |
| 2026-05-06 02:13 | 36.23274 | -86.66783 | 4016 ft | 233 kts | 121° |
| 2026-05-06 02:14 | 36.22788 | -86.64837 | 3976 ft | 246 kts | 101° |
| 2026-05-06 02:14 | 36.23104 | -86.62716 | 3997 ft | 259 kts | 68° |
| 2026-05-06 02:14 | 36.24261 | -86.60991 | 3993 ft | 264 kts | 33° |
| 2026-05-06 02:14 | 36.25867 | -86.59894 | 4025 ft | 266 kts | 30° |
| 2026-05-06 02:15 | 36.27171 | -86.58283 | 3982 ft | 267 kts | 63° |
| 2026-05-06 02:15 | 36.27838 | -86.56177 | 4031 ft | 260 kts | 77° |
| 2026-05-06 02:15 | 36.28415 | -86.54036 | 4020 ft | 263 kts | 76° |
| 2026-05-06 02:15 | 36.29021 | -86.51902 | 4004 ft | 260 kts | 75° |
| 2026-05-06 02:16 | 36.29617 | -86.49812 | 3996 ft | 255 kts | 75° |
| 2026-05-06 02:16 | 36.30200 | -86.47759 | 3993 ft | 252 kts | 76° |
| 2026-05-06 02:16 | 36.30987 | -86.45778 | 4004 ft | 264 kts | 53° |
| 2026-05-06 02:16 | 36.32440 | -86.44400 | 4023 ft | 264 kts | 19° |
| 2026-05-06 02:17 | 36.34225 | -86.43996 | 4011 ft | 263 kts | 355° |
| 2026-05-06 02:17 | 36.36087 | -86.43968 | 4029 ft | 268 kts | 354° |
| 2026-05-06 02:17 | 36.37873 | -86.44345 | 4009 ft | 255 kts | 327° |
| 2026-05-06 02:17 | 36.39208 | -86.45646 | 4016 ft | 237 kts | 296° |
| 2026-05-06 02:18 | 36.39736 | -86.47444 | 4003 ft | 214 kts | 265° |
| 2026-05-06 02:18 | 36.39588 | -86.49208 | 4009 ft | 203 kts | 255° |
| 2026-05-06 02:18 | 36.39393 | -86.50934 | 4017 ft | 206 kts | 255° |
| 2026-05-06 02:18 | 36.39204 | -86.52708 | 4007 ft | 207 kts | 255° |
| 2026-05-06 02:19 | 36.38793 | -86.54341 | 3738 ft | 194 kts | 229° |
| 2026-05-06 02:19 | 36.37682 | -86.55142 | 3588 ft | 185 kts | 198° |
| 2026-05-06 02:19 | 36.36489 | -86.55746 | 3582 ft | 189 kts | 212° |
| 2026-05-06 02:19 | 36.35377 | -86.56629 | 3534 ft | 189 kts | 211° |
| 2026-05-06 02:20 | 36.33191 | -86.58149 | 3381 ft | 161 kts | 208° |
| 2026-05-06 02:20 | 36.32256 | -86.58784 | 3308 ft | 147 kts | 208° |
| 2026-05-06 02:20 | 36.31365 | -86.59385 | 3279 ft | 145 kts | 207° |
| 2026-05-06 02:21 | 36.30485 | -86.59975 | 3247 ft | 142 kts | 208° |
| 2026-05-06 02:21 | 36.29621 | -86.60553 | 3202 ft | 140 kts | 208° |
| 2026-05-06 02:21 | 36.28761 | -86.61129 | 3121 ft | 141 kts | 208° |
| 2026-05-06 02:21 | 36.27915 | -86.61694 | 3076 ft | 137 kts | 207° |
| 2026-05-06 02:22 | 36.27065 | -86.62262 | 3027 ft | 140 kts | 206° |
| 2026-05-06 02:22 | 36.26207 | -86.62834 | 3013 ft | 139 kts | 206° |
| 2026-05-06 02:22 | 36.25317 | -86.63327 | 2906 ft | 142 kts | 196° |
| 2026-05-06 02:22 | 36.24373 | -86.63651 | 2749 ft | 141 kts | 199° |
| 2026-05-06 02:23 | 36.23457 | -86.64023 | 2552 ft | 141 kts | 199° |
| 2026-05-06 02:23 | 36.22525 | -86.64397 | 2378 ft | 141 kts | 198° |
| 2026-05-06 02:23 | 36.21582 | -86.64770 | 2193 ft | 142 kts | 197° |
| 2026-05-06 02:23 | 36.20640 | -86.65142 | 2006 ft | 143 kts | 197° |
| 2026-05-06 02:24 | 36.19712 | -86.65511 | 1801 ft | 135 kts | 196° |
| 2026-05-06 02:24 | 36.18845 | -86.65850 | 1642 ft | 129 kts | 196° |
| 2026-05-06 02:24 | 36.17993 | -86.66189 | 1473 ft | 131 kts | 195° |
| 2026-05-06 02:24 | 36.17103 | -86.66540 | 1306 ft | 137 kts | 196° |
| 2026-05-06 02:25 | 36.16183 | -86.66905 | 1086 ft | 141 kts | 197° |
| 2026-05-06 02:25 | 36.15252 | -86.67273 | 891 ft | 140 kts | 198° |
| 2026-05-06 02:25 | 36.14355 | -86.67618 | 731 ft | 130 kts | 198° |
| 2026-05-06 02:25 | 36.13517 | -86.67957 | 585 ft | 124 kts | 198° |
| 2026-05-06 02:26 | 36.13010 | -86.68158 | 586 ft | 106 kts | 199° |
| 2026-05-06 02:26 | 36.12452 | -86.68379 | 588 ft | 62 kts | 198° |
| 2026-05-06 02:26 | 36.12187 | -86.68483 | 597 ft | 18 kts | 197° |
| 2026-05-06 02:26 | 36.12092 | -86.68522 | 602 ft | 15 kts | 198° |
| 2026-05-06 02:27 | 36.11965 | -86.68571 | 616 ft | 20 kts | 197° |
| 2026-05-06 02:27 | 36.11836 | -86.68622 | 624 ft | 14 kts | 202° |
| 2026-05-06 02:27 | 36.11799 | -86.68707 | 620 ft | 13 kts | 276° |
| 2026-05-06 02:27 | 36.11910 | -86.68788 | 616 ft | 21 kts | 326° |
| 2026-05-06 02:28 | 36.12050 | -86.68856 | 619 ft | 22 kts | 351° |
| 2026-05-06 02:28 | 36.12177 | -86.68836 | 614 ft | 15 kts | 13° |